sensor_id;sensor_type;location;lat;lon;timestamp;P1;durP1;ratioP1;P2;durP2;ratioP2
11473;SDS011;5793;52.238;13.438;2023-06-22T00:00:11;16.02;;;14.13;;
11473;SDS011;5793;52.238;13.438;2023-06-22T00:02:39;15.85;;;14.32;;
11473;SDS011;5793;52.238;13.438;2023-06-22T00:05:07;15.82;;;14.32;;
11473;SDS011;5793;52.238;13.438;2023-06-22T00:07:35;17.48;;;13.43;;
11473;SDS011;5793;52.238;13.438;2023-06-22T00:10:05;15.38;;;13.82;;
11473;SDS011;5793;52.238;13.438;2023-06-22T00:12:33;14.27;;;12.88;;
11473;SDS011;5793;52.238;13.438;2023-06-22T00:15:01;15.65;;;13.60;;
11473;SDS011;5793;52.238;13.438;2023-06-22T00:17:29;14.23;;;12.90;;
11473;SDS011;5793;52.238;13.438;2023-06-22T00:19:57;15.70;;;14.10;;
11473;SDS011;5793;52.238;13.438;2023-06-22T00:22:26;15.65;;;14.00;;
11473;SDS011;5793;52.238;13.438;2023-06-22T00:24:55;15.95;;;13.60;;
11473;SDS011;5793;52.238;13.438;2023-06-22T00:27:25;17.08;;;13.35;;
11473;SDS011;5793;52.238;13.438;2023-06-22T00:29:52;14.93;;;13.38;;
11473;SDS011;5793;52.238;13.438;2023-06-22T00:32:20;15.38;;;13.90;;
11473;SDS011;5793;52.238;13.438;2023-06-22T00:34:48;17.00;;;14.35;;
11473;SDS011;5793;52.238;13.438;2023-06-22T00:37:17;15.68;;;14.25;;
11473;SDS011;5793;52.238;13.438;2023-06-22T00:39:45;17.48;;;14.95;;
11473;SDS011;5793;52.238;13.438;2023-06-22T00:42:12;16.63;;;14.00;;
11473;SDS011;5793;52.238;13.438;2023-06-22T00:44:41;15.38;;;13.98;;
11473;SDS011;5793;52.238;13.438;2023-06-22T00:47:10;17.13;;;14.85;;
11473;SDS011;5793;52.238;13.438;2023-06-22T00:49:39;16.80;;;15.02;;
11473;SDS011;5793;52.238;13.438;2023-06-22T00:52:07;14.60;;;13.15;;
11473;SDS011;5793;52.238;13.438;2023-06-22T00:54:40;16.45;;;14.50;;
11473;SDS011;5793;52.238;13.438;2023-06-22T00:57:11;16.40;;;14.60;;
11473;SDS011;5793;52.238;13.438;2023-06-22T00:59:43;16.10;;;14.23;;
11473;SDS011;5793;52.238;13.438;2023-06-22T01:02:11;16.35;;;14.65;;
11473;SDS011;5793;52.238;13.438;2023-06-22T01:04:40;16.00;;;13.95;;
11473;SDS011;5793;52.238;13.438;2023-06-22T01:07:10;16.75;;;13.57;;
11473;SDS011;5793;52.238;13.438;2023-06-22T01:09:45;15.23;;;13.73;;
11473;SDS011;5793;52.238;13.438;2023-06-22T01:12:18;15.13;;;13.63;;
11473;SDS011;5793;52.238;13.438;2023-06-22T01:14:49;16.70;;;14.85;;
11473;SDS011;5793;52.238;13.438;2023-06-22T01:17:21;15.45;;;14.02;;
11473;SDS011;5793;52.238;13.438;2023-06-22T01:19:50;18.83;;;13.80;;
11473;SDS011;5793;52.238;13.438;2023-06-22T01:22:23;16.30;;;14.40;;
11473;SDS011;5793;52.238;13.438;2023-06-22T01:24:57;14.23;;;12.73;;
11473;SDS011;5793;52.238;13.438;2023-06-22T01:27:36;15.70;;;13.00;;
11473;SDS011;5793;52.238;13.438;2023-06-22T01:30:13;15.35;;;13.23;;
11473;SDS011;5793;52.238;13.438;2023-06-22T01:32:43;14.25;;;12.32;;
11473;SDS011;5793;52.238;13.438;2023-06-22T01:35:12;14.13;;;12.73;;
11473;SDS011;5793;52.238;13.438;2023-06-22T01:37:40;15.30;;;13.70;;
11473;SDS011;5793;52.238;13.438;2023-06-22T01:40:08;16.30;;;13.57;;
11473;SDS011;5793;52.238;13.438;2023-06-22T01:42:36;14.75;;;13.27;;
11473;SDS011;5793;52.238;13.438;2023-06-22T01:45:05;14.45;;;13.02;;
11473;SDS011;5793;52.238;13.438;2023-06-22T01:47:36;14.32;;;12.93;;
11473;SDS011;5793;52.238;13.438;2023-06-22T01:50:05;14.05;;;12.55;;
11473;SDS011;5793;52.238;13.438;2023-06-22T01:52:34;15.80;;;14.27;;
11473;SDS011;5793;52.238;13.438;2023-06-22T01:55:02;13.57;;;12.18;;
11473;SDS011;5793;52.238;13.438;2023-06-22T01:57:30;15.00;;;13.65;;
11473;SDS011;5793;52.238;13.438;2023-06-22T02:00:00;16.83;;;15.05;;
11473;SDS011;5793;52.238;13.438;2023-06-22T02:02:31;15.95;;;14.45;;
11473;SDS011;5793;52.238;13.438;2023-06-22T02:05:06;16.55;;;14.85;;
11473;SDS011;5793;52.238;13.438;2023-06-22T02:07:37;15.95;;;14.45;;
11473;SDS011;5793;52.238;13.438;2023-06-22T02:10:09;16.33;;;14.68;;
11473;SDS011;5793;52.238;13.438;2023-06-22T02:12:40;15.00;;;13.50;;
11473;SDS011;5793;52.238;13.438;2023-06-22T02:15:10;15.73;;;14.20;;
11473;SDS011;5793;52.238;13.438;2023-06-22T02:17:40;17.15;;;15.38;;
11473;SDS011;5793;52.238;13.438;2023-06-22T02:20:13;16.40;;;14.80;;
11473;SDS011;5793;52.238;13.438;2023-06-22T02:22:41;18.75;;;16.00;;
11473;SDS011;5793;52.238;13.438;2023-06-22T02:25:09;19.33;;;16.65;;
11473;SDS011;5793;52.238;13.438;2023-06-22T02:27:37;17.38;;;15.68;;
11473;SDS011;5793;52.238;13.438;2023-06-22T02:30:07;16.90;;;15.30;;
11473;SDS011;5793;52.238;13.438;2023-06-22T02:32:36;18.40;;;15.18;;
11473;SDS011;5793;52.238;13.438;2023-06-22T02:35:08;17.35;;;15.43;;
11473;SDS011;5793;52.238;13.438;2023-06-22T02:37:37;16.67;;;14.35;;
11473;SDS011;5793;52.238;13.438;2023-06-22T02:40:08;16.50;;;14.85;;
11473;SDS011;5793;52.238;13.438;2023-06-22T02:42:36;16.20;;;14.60;;
11473;SDS011;5793;52.238;13.438;2023-06-22T02:45:05;15.43;;;13.93;;
11473;SDS011;5793;52.238;13.438;2023-06-22T02:47:33;15.02;;;13.52;;
11473;SDS011;5793;52.238;13.438;2023-06-22T02:50:01;14.95;;;13.45;;
11473;SDS011;5793;52.238;13.438;2023-06-22T02:52:29;15.95;;;14.25;;
11473;SDS011;5793;52.238;13.438;2023-06-22T02:54:58;15.40;;;13.90;;
11473;SDS011;5793;52.238;13.438;2023-06-22T02:57:26;15.85;;;13.35;;
11473;SDS011;5793;52.238;13.438;2023-06-22T02:59:54;19.20;;;13.85;;
11473;SDS011;5793;52.238;13.438;2023-06-22T03:02:22;15.10;;;13.65;;
11473;SDS011;5793;52.238;13.438;2023-06-22T03:04:50;16.52;;;13.57;;
11473;SDS011;5793;52.238;13.438;2023-06-22T03:07:20;14.68;;;13.27;;
11473;SDS011;5793;52.238;13.438;2023-06-22T03:09:47;15.90;;;13.70;;
11473;SDS011;5793;52.238;13.438;2023-06-22T03:12:16;16.52;;;13.82;;
11473;SDS011;5793;52.238;13.438;2023-06-22T03:14:44;15.95;;;14.45;;
11473;SDS011;5793;52.238;13.438;2023-06-22T03:17:12;15.18;;;13.60;;
11473;SDS011;5793;52.238;13.438;2023-06-22T03:19:40;15.57;;;13.98;;
11473;SDS011;5793;52.238;13.438;2023-06-22T03:22:08;17.60;;;15.07;;
11473;SDS011;5793;52.238;13.438;2023-06-22T03:24:39;15.48;;;14.02;;
11473;SDS011;5793;52.238;13.438;2023-06-22T03:27:07;17.05;;;15.20;;
11473;SDS011;5793;52.238;13.438;2023-06-22T03:29:36;17.10;;;15.30;;
11473;SDS011;5793;52.238;13.438;2023-06-22T03:32:04;20.77;;;17.30;;
11473;SDS011;5793;52.238;13.438;2023-06-22T03:34:33;21.48;;;19.13;;
11473;SDS011;5793;52.238;13.438;2023-06-22T03:37:03;18.10;;;16.20;;
11473;SDS011;5793;52.238;13.438;2023-06-22T03:39:31;19.70;;;16.05;;
11473;SDS011;5793;52.238;13.438;2023-06-22T03:41:59;17.98;;;15.45;;
11473;SDS011;5793;52.238;13.438;2023-06-22T03:44:27;16.85;;;15.20;;
11473;SDS011;5793;52.238;13.438;2023-06-22T03:46:56;16.92;;;15.32;;
11473;SDS011;5793;52.238;13.438;2023-06-22T03:49:24;17.55;;;15.85;;
11473;SDS011;5793;52.238;13.438;2023-06-22T03:51:52;19.17;;;15.70;;
11473;SDS011;5793;52.238;13.438;2023-06-22T03:54:19;17.63;;;15.63;;
11473;SDS011;5793;52.238;13.438;2023-06-22T03:56:47;17.58;;;15.85;;
11473;SDS011;5793;52.238;13.438;2023-06-22T03:59:15;15.93;;;14.32;;
11473;SDS011;5793;52.238;13.438;2023-06-22T04:01:43;15.50;;;14.10;;
11473;SDS011;5793;52.238;13.438;2023-06-22T04:04:12;18.83;;;15.77;;
11473;SDS011;5793;52.238;13.438;2023-06-22T04:06:40;17.08;;;15.45;;
11473;SDS011;5793;52.238;13.438;2023-06-22T04:09:08;17.15;;;15.25;;
11473;SDS011;5793;52.238;13.438;2023-06-22T04:11:35;16.80;;;14.52;;
11473;SDS011;5793;52.238;13.438;2023-06-22T04:14:03;16.27;;;14.65;;
11473;SDS011;5793;52.238;13.438;2023-06-22T04:16:31;17.35;;;15.60;;
11473;SDS011;5793;52.238;13.438;2023-06-22T04:18:59;17.70;;;15.20;;
11473;SDS011;5793;52.238;13.438;2023-06-22T04:21:28;17.58;;;15.50;;
11473;SDS011;5793;52.238;13.438;2023-06-22T04:23:56;17.88;;;14.50;;
11473;SDS011;5793;52.238;13.438;2023-06-22T04:26:24;15.23;;;13.63;;
11473;SDS011;5793;52.238;13.438;2023-06-22T04:28:51;14.57;;;13.27;;
11473;SDS011;5793;52.238;13.438;2023-06-22T04:31:21;16.85;;;14.98;;
11473;SDS011;5793;52.238;13.438;2023-06-22T04:33:59;15.23;;;13.68;;
11473;SDS011;5793;52.238;13.438;2023-06-22T04:36:34;16.17;;;14.50;;
11473;SDS011;5793;52.238;13.438;2023-06-22T04:39:04;15.23;;;13.55;;
11473;SDS011;5793;52.238;13.438;2023-06-22T04:41:35;13.55;;;12.15;;
11473;SDS011;5793;52.238;13.438;2023-06-22T04:44:09;15.20;;;13.05;;
11473;SDS011;5793;52.238;13.438;2023-06-22T04:46:37;14.52;;;12.98;;
11473;SDS011;5793;52.238;13.438;2023-06-22T04:49:06;13.30;;;11.98;;
11473;SDS011;5793;52.238;13.438;2023-06-22T04:51:41;14.15;;;12.75;;
11473;SDS011;5793;52.238;13.438;2023-06-22T04:54:09;13.60;;;12.30;;
11473;SDS011;5793;52.238;13.438;2023-06-22T04:56:37;11.73;;;10.63;;
11473;SDS011;5793;52.238;13.438;2023-06-22T04:59:07;11.85;;;10.73;;
11473;SDS011;5793;52.238;13.438;2023-06-22T05:01:39;14.63;;;11.10;;
11473;SDS011;5793;52.238;13.438;2023-06-22T05:04:07;14.10;;;11.30;;
11473;SDS011;5793;52.238;13.438;2023-06-22T05:06:35;13.25;;;11.05;;
11473;SDS011;5793;52.238;13.438;2023-06-22T05:09:07;11.82;;;10.50;;
11473;SDS011;5793;52.238;13.438;2023-06-22T05:11:35;11.82;;;10.63;;
11473;SDS011;5793;52.238;13.438;2023-06-22T05:14:03;14.20;;;10.63;;
11473;SDS011;5793;52.238;13.438;2023-06-22T05:16:31;12.50;;;11.07;;
11473;SDS011;5793;52.238;13.438;2023-06-22T05:18:59;11.57;;;9.38;;
11473;SDS011;5793;52.238;13.438;2023-06-22T05:21:30;10.85;;;9.85;;
11473;SDS011;5793;52.238;13.438;2023-06-22T05:23:59;12.32;;;10.07;;
11473;SDS011;5793;52.238;13.438;2023-06-22T05:26:30;10.63;;;9.63;;
11473;SDS011;5793;52.238;13.438;2023-06-22T05:28:59;10.32;;;9.23;;
11473;SDS011;5793;52.238;13.438;2023-06-22T05:31:29;11.48;;;9.30;;
11473;SDS011;5793;52.238;13.438;2023-06-22T05:33:57;11.15;;;8.15;;
11473;SDS011;5793;52.238;13.438;2023-06-22T05:36:26;9.18;;;8.18;;
11473;SDS011;5793;52.238;13.438;2023-06-22T05:38:56;9.18;;;8.07;;
11473;SDS011;5793;52.238;13.438;2023-06-22T05:41:24;10.77;;;8.80;;
11473;SDS011;5793;52.238;13.438;2023-06-22T05:43:53;9.35;;;7.95;;
11473;SDS011;5793;52.238;13.438;2023-06-22T05:46:20;10.07;;;7.95;;
11473;SDS011;5793;52.238;13.438;2023-06-22T05:48:48;9.48;;;8.43;;
11473;SDS011;5793;52.238;13.438;2023-06-22T05:51:16;19.00;;;9.10;;
11473;SDS011;5793;52.238;13.438;2023-06-22T05:53:44;9.20;;;8.30;;
11473;SDS011;5793;52.238;13.438;2023-06-22T05:56:15;9.15;;;7.60;;
11473;SDS011;5793;52.238;13.438;2023-06-22T05:58:43;7.65;;;6.82;;
11473;SDS011;5793;52.238;13.438;2023-06-22T06:01:14;12.05;;;7.38;;
11473;SDS011;5793;52.238;13.438;2023-06-22T06:03:42;8.30;;;7.50;;
11473;SDS011;5793;52.238;13.438;2023-06-22T06:06:10;8.25;;;6.90;;
11473;SDS011;5793;52.238;13.438;2023-06-22T06:08:38;8.48;;;6.95;;
11473;SDS011;5793;52.238;13.438;2023-06-22T06:11:06;8.82;;;7.03;;
11473;SDS011;5793;52.238;13.438;2023-06-22T06:13:34;6.75;;;6.15;;
11473;SDS011;5793;52.238;13.438;2023-06-22T06:16:02;12.75;;;6.53;;
11473;SDS011;5793;52.238;13.438;2023-06-22T06:18:31;6.80;;;6.10;;
11473;SDS011;5793;52.238;13.438;2023-06-22T06:20:59;10.70;;;5.93;;
11473;SDS011;5793;52.238;13.438;2023-06-22T06:23:27;7.38;;;5.20;;
11473;SDS011;5793;52.238;13.438;2023-06-22T06:25:55;10.13;;;5.55;;
11473;SDS011;5793;52.238;13.438;2023-06-22T06:28:24;7.45;;;4.93;;
11473;SDS011;5793;52.238;13.438;2023-06-22T06:30:52;12.98;;;5.93;;
11473;SDS011;5793;52.238;13.438;2023-06-22T06:33:19;6.05;;;5.20;;
11473;SDS011;5793;52.238;13.438;2023-06-22T06:35:52;6.80;;;6.10;;
11473;SDS011;5793;52.238;13.438;2023-06-22T06:38:22;8.25;;;6.18;;
11473;SDS011;5793;52.238;13.438;2023-06-22T06:40:50;7.95;;;5.72;;
11473;SDS011;5793;52.238;13.438;2023-06-22T06:43:18;6.75;;;5.15;;
11473;SDS011;5793;52.238;13.438;2023-06-22T06:45:45;7.30;;;5.22;;
11473;SDS011;5793;52.238;13.438;2023-06-22T06:48:17;5.20;;;4.70;;
11473;SDS011;5793;52.238;13.438;2023-06-22T06:50:45;6.00;;;5.18;;
11473;SDS011;5793;52.238;13.438;2023-06-22T06:53:14;10.32;;;4.93;;
11473;SDS011;5793;52.238;13.438;2023-06-22T06:55:42;4.95;;;4.45;;
11473;SDS011;5793;52.238;13.438;2023-06-22T06:58:11;5.82;;;4.95;;
11473;SDS011;5793;52.238;13.438;2023-06-22T07:00:39;6.07;;;5.45;;
11473;SDS011;5793;52.238;13.438;2023-06-22T07:03:08;6.80;;;5.35;;
11473;SDS011;5793;52.238;13.438;2023-06-22T07:05:36;10.52;;;6.03;;
11473;SDS011;5793;52.238;13.438;2023-06-22T07:08:04;5.90;;;5.30;;
11473;SDS011;5793;52.238;13.438;2023-06-22T07:10:33;21.25;;;7.45;;
11473;SDS011;5793;52.238;13.438;2023-06-22T07:13:01;6.05;;;5.45;;
11473;SDS011;5793;52.238;13.438;2023-06-22T07:15:29;6.40;;;5.80;;
11473;SDS011;5793;52.238;13.438;2023-06-22T07:17:56;6.70;;;6.00;;
11473;SDS011;5793;52.238;13.438;2023-06-22T07:20:24;8.45;;;6.00;;
11473;SDS011;5793;52.238;13.438;2023-06-22T07:22:53;5.97;;;5.40;;
11473;SDS011;5793;52.238;13.438;2023-06-22T07:25:21;7.10;;;6.40;;
11473;SDS011;5793;52.238;13.438;2023-06-22T07:27:58;6.28;;;5.68;;
11473;SDS011;5793;52.238;13.438;2023-06-22T07:30:27;7.13;;;6.13;;
11473;SDS011;5793;52.238;13.438;2023-06-22T07:32:56;13.98;;;7.03;;
11473;SDS011;5793;52.238;13.438;2023-06-22T07:35:25;8.52;;;6.40;;
11473;SDS011;5793;52.238;13.438;2023-06-22T07:37:53;8.15;;;6.55;;
11473;SDS011;5793;52.238;13.438;2023-06-22T07:40:20;7.63;;;6.65;;
11473;SDS011;5793;52.238;13.438;2023-06-22T07:42:48;7.00;;;6.30;;
11473;SDS011;5793;52.238;13.438;2023-06-22T07:45:19;8.00;;;6.68;;
11473;SDS011;5793;52.238;13.438;2023-06-22T07:47:47;6.68;;;6.00;;
11473;SDS011;5793;52.238;13.438;2023-06-22T07:50:15;6.70;;;6.10;;
11473;SDS011;5793;52.238;13.438;2023-06-22T07:52:43;9.70;;;5.95;;
11473;SDS011;5793;52.238;13.438;2023-06-22T07:55:11;10.57;;;6.22;;
11473;SDS011;5793;52.238;13.438;2023-06-22T07:57:39;7.35;;;5.97;;
11473;SDS011;5793;52.238;13.438;2023-06-22T08:00:08;6.70;;;5.68;;
11473;SDS011;5793;52.238;13.438;2023-06-22T08:02:40;6.93;;;6.25;;
11473;SDS011;5793;52.238;13.438;2023-06-22T08:05:09;7.45;;;5.93;;
11473;SDS011;5793;52.238;13.438;2023-06-22T08:07:40;5.93;;;5.32;;
11473;SDS011;5793;52.238;13.438;2023-06-22T08:10:13;5.80;;;5.30;;
11473;SDS011;5793;52.238;13.438;2023-06-22T08:12:41;8.95;;;5.82;;
11473;SDS011;5793;52.238;13.438;2023-06-22T08:15:09;6.22;;;5.60;;
11473;SDS011;5793;52.238;13.438;2023-06-22T08:17:37;6.18;;;5.28;;
11473;SDS011;5793;52.238;13.438;2023-06-22T08:20:07;5.57;;;5.07;;
11473;SDS011;5793;52.238;13.438;2023-06-22T08:22:38;5.68;;;4.82;;
11473;SDS011;5793;52.238;13.438;2023-06-22T08:25:06;7.57;;;5.00;;
11473;SDS011;5793;52.238;13.438;2023-06-22T08:27:35;7.13;;;4.90;;
11473;SDS011;5793;52.238;13.438;2023-06-22T08:30:03;6.57;;;5.20;;
11473;SDS011;5793;52.238;13.438;2023-06-22T08:32:32;7.03;;;5.13;;
11473;SDS011;5793;52.238;13.438;2023-06-22T08:35:00;7.57;;;5.80;;
11473;SDS011;5793;52.238;13.438;2023-06-22T08:37:29;8.82;;;5.63;;
11473;SDS011;5793;52.238;13.438;2023-06-22T08:39:58;5.20;;;4.47;;
11473;SDS011;5793;52.238;13.438;2023-06-22T08:42:27;5.50;;;5.00;;
11473;SDS011;5793;52.238;13.438;2023-06-22T08:44:55;7.18;;;5.30;;
11473;SDS011;5793;52.238;13.438;2023-06-22T08:47:23;5.78;;;5.10;;
11473;SDS011;5793;52.238;13.438;2023-06-22T08:49:50;11.52;;;5.35;;
11473;SDS011;5793;52.238;13.438;2023-06-22T08:52:18;9.23;;;5.05;;
11473;SDS011;5793;52.238;13.438;2023-06-22T08:54:48;7.55;;;5.00;;
11473;SDS011;5793;52.238;13.438;2023-06-22T08:57:17;7.47;;;4.47;;
11473;SDS011;5793;52.238;13.438;2023-06-22T08:59:44;9.75;;;5.03;;
11473;SDS011;5793;52.238;13.438;2023-06-22T09:02:12;6.20;;;4.80;;
11473;SDS011;5793;52.238;13.438;2023-06-22T09:04:40;7.10;;;4.90;;
11473;SDS011;5793;52.238;13.438;2023-06-22T09:07:09;7.00;;;4.25;;
11473;SDS011;5793;52.238;13.438;2023-06-22T09:09:38;5.10;;;4.60;;
11473;SDS011;5793;52.238;13.438;2023-06-22T09:12:07;6.07;;;4.40;;
11473;SDS011;5793;52.238;13.438;2023-06-22T09:14:36;5.60;;;4.40;;
11473;SDS011;5793;52.238;13.438;2023-06-22T09:17:04;5.10;;;4.28;;
11473;SDS011;5793;52.238;13.438;2023-06-22T09:19:32;4.85;;;4.35;;
11473;SDS011;5793;52.238;13.438;2023-06-22T09:22:00;6.07;;;4.03;;
11473;SDS011;5793;52.238;13.438;2023-06-22T09:24:28;4.57;;;4.18;;
11473;SDS011;5793;52.238;13.438;2023-06-22T09:26:55;11.05;;;5.35;;
11473;SDS011;5793;52.238;13.438;2023-06-22T09:29:25;4.80;;;4.30;;
11473;SDS011;5793;52.238;13.438;2023-06-22T09:31:52;5.53;;;4.20;;
11473;SDS011;5793;52.238;13.438;2023-06-22T09:34:22;4.80;;;4.00;;
11473;SDS011;5793;52.238;13.438;2023-06-22T09:36:50;3.97;;;3.67;;
11473;SDS011;5793;52.238;13.438;2023-06-22T09:39:17;6.10;;;4.30;;
11473;SDS011;5793;52.238;13.438;2023-06-22T09:41:45;8.95;;;4.30;;
11473;SDS011;5793;52.238;13.438;2023-06-22T09:44:13;7.45;;;4.10;;
11473;SDS011;5793;52.238;13.438;2023-06-22T09:46:42;6.10;;;3.88;;
11473;SDS011;5793;52.238;13.438;2023-06-22T09:49:10;7.07;;;4.20;;
11473;SDS011;5793;52.238;13.438;2023-06-22T09:51:38;4.50;;;4.07;;
11473;SDS011;5793;52.238;13.438;2023-06-22T09:54:06;4.85;;;3.95;;
11473;SDS011;5793;52.238;13.438;2023-06-22T09:56:34;6.38;;;4.40;;
11473;SDS011;5793;52.238;13.438;2023-06-22T09:59:04;4.72;;;3.60;;
11473;SDS011;5793;52.238;13.438;2023-06-22T10:01:45;21.40;;;8.00;;
11473;SDS011;5793;52.238;13.438;2023-06-22T10:04:12;45.08;;;13.13;;
11473;SDS011;5793;52.238;13.438;2023-06-22T10:06:41;11.52;;;5.63;;
11473;SDS011;5793;52.238;13.438;2023-06-22T10:09:08;5.55;;;4.68;;
11473;SDS011;5793;52.238;13.438;2023-06-22T10:11:36;5.63;;;3.90;;
11473;SDS011;5793;52.238;13.438;2023-06-22T10:14:04;4.55;;;4.00;;
11473;SDS011;5793;52.238;13.438;2023-06-22T10:16:32;6.47;;;4.32;;
11473;SDS011;5793;52.238;13.438;2023-06-22T10:19:03;5.32;;;4.25;;
11473;SDS011;5793;52.238;13.438;2023-06-22T10:21:31;7.65;;;4.43;;
11473;SDS011;5793;52.238;13.438;2023-06-22T10:23:59;6.65;;;4.28;;
11473;SDS011;5793;52.238;13.438;2023-06-22T10:26:32;8.50;;;4.60;;
11473;SDS011;5793;52.238;13.438;2023-06-22T10:29:00;4.60;;;4.07;;
11473;SDS011;5793;52.238;13.438;2023-06-22T10:31:41;28.88;;;11.10;;
11473;SDS011;5793;52.238;13.438;2023-06-22T10:34:10;4.72;;;4.22;;
11473;SDS011;5793;52.238;13.438;2023-06-22T10:36:38;5.00;;;4.50;;
11473;SDS011;5793;52.238;13.438;2023-06-22T10:39:06;4.75;;;4.25;;
11473;SDS011;5793;52.238;13.438;2023-06-22T10:41:34;4.57;;;4.18;;
11473;SDS011;5793;52.238;13.438;2023-06-22T10:44:02;5.80;;;4.40;;
11473;SDS011;5793;52.238;13.438;2023-06-22T10:46:30;6.57;;;4.10;;
11473;SDS011;5793;52.238;13.438;2023-06-22T10:48:58;4.07;;;3.70;;
11473;SDS011;5793;52.238;13.438;2023-06-22T10:51:27;3.95;;;3.55;;
11473;SDS011;5793;52.238;13.438;2023-06-22T10:53:55;4.60;;;4.03;;
11473;SDS011;5793;52.238;13.438;2023-06-22T10:56:23;4.22;;;3.78;;
11473;SDS011;5793;52.238;13.438;2023-06-22T10:58:51;6.45;;;3.75;;
11473;SDS011;5793;52.238;13.438;2023-06-22T11:01:20;15.48;;;4.97;;
11473;SDS011;5793;52.238;13.438;2023-06-22T11:04:01;6.93;;;4.00;;
11473;SDS011;5793;52.238;13.438;2023-06-22T11:06:31;5.45;;;4.20;;
11473;SDS011;5793;52.238;13.438;2023-06-22T11:08:59;4.28;;;3.88;;
11473;SDS011;5793;52.238;13.438;2023-06-22T11:11:30;4.50;;;4.10;;
11473;SDS011;5793;52.238;13.438;2023-06-22T11:13:57;4.57;;;4.18;;
11473;SDS011;5793;52.238;13.438;2023-06-22T11:16:25;7.18;;;4.03;;
11473;SDS011;5793;52.238;13.438;2023-06-22T11:18:54;5.50;;;4.10;;
11473;SDS011;5793;52.238;13.438;2023-06-22T11:21:21;4.47;;;4.00;;
11473;SDS011;5793;52.238;13.438;2023-06-22T11:23:51;6.43;;;4.22;;
11473;SDS011;5793;52.238;13.438;2023-06-22T11:26:18;6.72;;;4.28;;
11473;SDS011;5793;52.238;13.438;2023-06-22T11:28:47;4.78;;;4.28;;
11473;SDS011;5793;52.238;13.438;2023-06-22T11:31:15;4.45;;;4.05;;
11473;SDS011;5793;52.238;13.438;2023-06-22T11:33:52;4.60;;;4.05;;
11473;SDS011;5793;52.238;13.438;2023-06-22T11:36:20;4.18;;;3.78;;
11473;SDS011;5793;52.238;13.438;2023-06-22T11:38:48;9.77;;;4.63;;
11473;SDS011;5793;52.238;13.438;2023-06-22T11:41:17;6.43;;;3.75;;
11473;SDS011;5793;52.238;13.438;2023-06-22T11:43:45;4.82;;;4.20;;
11473;SDS011;5793;52.238;13.438;2023-06-22T11:46:13;6.75;;;4.22;;
11473;SDS011;5793;52.238;13.438;2023-06-22T11:48:41;5.93;;;4.40;;
11473;SDS011;5793;52.238;13.438;2023-06-22T11:51:09;5.85;;;4.20;;
11473;SDS011;5793;52.238;13.438;2023-06-22T11:53:36;4.18;;;3.78;;
11473;SDS011;5793;52.238;13.438;2023-06-22T11:56:04;5.00;;;3.70;;
11473;SDS011;5793;52.238;13.438;2023-06-22T11:58:35;5.50;;;3.85;;
11473;SDS011;5793;52.238;13.438;2023-06-22T12:01:03;4.05;;;3.70;;
11473;SDS011;5793;52.238;13.438;2023-06-22T12:03:31;4.75;;;3.53;;
11473;SDS011;5793;52.238;13.438;2023-06-22T12:05:59;4.10;;;3.78;;
11473;SDS011;5793;52.238;13.438;2023-06-22T12:08:27;4.22;;;3.85;;
11473;SDS011;5793;52.238;13.438;2023-06-22T12:10:55;5.60;;;4.15;;
11473;SDS011;5793;52.238;13.438;2023-06-22T12:13:23;4.95;;;4.43;;
11473;SDS011;5793;52.238;13.438;2023-06-22T12:15:53;4.82;;;4.32;;
11473;SDS011;5793;52.238;13.438;2023-06-22T12:18:21;4.40;;;4.00;;
11473;SDS011;5793;52.238;13.438;2023-06-22T12:20:49;6.07;;;4.13;;
11473;SDS011;5793;52.238;13.438;2023-06-22T12:23:17;4.95;;;3.80;;
11473;SDS011;5793;52.238;13.438;2023-06-22T12:25:46;4.63;;;4.22;;
11473;SDS011;5793;52.238;13.438;2023-06-22T12:28:13;4.82;;;4.35;;
11473;SDS011;5793;52.238;13.438;2023-06-22T12:30:41;4.50;;;4.00;;
11473;SDS011;5793;52.238;13.438;2023-06-22T12:33:11;5.53;;;4.10;;
11473;SDS011;5793;52.238;13.438;2023-06-22T12:35:38;4.28;;;3.88;;
11473;SDS011;5793;52.238;13.438;2023-06-22T12:38:06;4.10;;;3.80;;
11473;SDS011;5793;52.238;13.438;2023-06-22T12:40:35;5.85;;;3.95;;
11473;SDS011;5793;52.238;13.438;2023-06-22T12:43:03;4.72;;;4.05;;
11473;SDS011;5793;52.238;13.438;2023-06-22T12:45:31;4.07;;;3.75;;
11473;SDS011;5793;52.238;13.438;2023-06-22T12:48:00;4.60;;;4.20;;
11473;SDS011;5793;52.238;13.438;2023-06-22T12:50:29;6.43;;;4.07;;
11473;SDS011;5793;52.238;13.438;2023-06-22T12:52:57;3.92;;;3.50;;
11473;SDS011;5793;52.238;13.438;2023-06-22T12:55:26;4.55;;;4.15;;
11473;SDS011;5793;52.238;13.438;2023-06-22T12:57:54;4.75;;;4.22;;
11473;SDS011;5793;52.238;13.438;2023-06-22T13:00:21;4.45;;;4.05;;
11473;SDS011;5793;52.238;13.438;2023-06-22T13:02:49;4.70;;;4.30;;
11473;SDS011;5793;52.238;13.438;2023-06-22T13:05:19;4.72;;;4.32;;
11473;SDS011;5793;52.238;13.438;2023-06-22T13:07:49;7.93;;;4.30;;
11473;SDS011;5793;52.238;13.438;2023-06-22T13:10:17;4.43;;;4.03;;
11473;SDS011;5793;52.238;13.438;2023-06-22T13:12:45;3.90;;;3.60;;
11473;SDS011;5793;52.238;13.438;2023-06-22T13:15:12;5.05;;;4.20;;
11473;SDS011;5793;52.238;13.438;2023-06-22T13:17:40;4.40;;;4.00;;
11473;SDS011;5793;52.238;13.438;2023-06-22T13:20:09;8.18;;;4.32;;
11473;SDS011;5793;52.238;13.438;2023-06-22T13:22:37;4.20;;;3.80;;
11473;SDS011;5793;52.238;13.438;2023-06-22T13:25:10;4.65;;;4.25;;
11473;SDS011;5793;52.238;13.438;2023-06-22T13:27:39;4.60;;;4.20;;
11473;SDS011;5793;52.238;13.438;2023-06-22T13:30:08;5.28;;;4.78;;
11473;SDS011;5793;52.238;13.438;2023-06-22T13:32:40;4.90;;;4.43;;
11473;SDS011;5793;52.238;13.438;2023-06-22T13:35:09;4.72;;;4.30;;
11473;SDS011;5793;52.238;13.438;2023-06-22T13:37:37;6.25;;;4.97;;
11473;SDS011;5793;52.238;13.438;2023-06-22T13:40:05;6.75;;;4.80;;
11473;SDS011;5793;52.238;13.438;2023-06-22T13:42:35;7.07;;;4.72;;
11473;SDS011;5793;52.238;13.438;2023-06-22T13:45:03;6.10;;;5.07;;
11473;SDS011;5793;52.238;13.438;2023-06-22T13:47:32;4.97;;;4.40;;
11473;SDS011;5793;52.238;13.438;2023-06-22T13:50:00;4.78;;;4.38;;
11473;SDS011;5793;52.238;13.438;2023-06-22T13:52:28;5.47;;;4.20;;
11473;SDS011;5793;52.238;13.438;2023-06-22T13:54:56;8.05;;;4.65;;
11473;SDS011;5793;52.238;13.438;2023-06-22T13:57:24;6.07;;;4.40;;
11473;SDS011;5793;52.238;13.438;2023-06-22T13:59:53;4.72;;;4.32;;
11473;SDS011;5793;52.238;13.438;2023-06-22T14:02:21;7.57;;;4.53;;
11473;SDS011;5793;52.238;13.438;2023-06-22T14:04:49;5.00;;;4.32;;
11473;SDS011;5793;52.238;13.438;2023-06-22T14:07:17;5.88;;;4.00;;
11473;SDS011;5793;52.238;13.438;2023-06-22T14:09:47;6.45;;;4.55;;
11473;SDS011;5793;52.238;13.438;2023-06-22T14:12:16;5.70;;;5.15;;
11473;SDS011;5793;52.238;13.438;2023-06-22T14:14:45;5.38;;;4.75;;
11473;SDS011;5793;52.238;13.438;2023-06-22T14:17:14;4.80;;;4.30;;
11473;SDS011;5793;52.238;13.438;2023-06-22T14:19:42;5.25;;;4.75;;
11473;SDS011;5793;52.238;13.438;2023-06-22T14:22:10;5.50;;;4.80;;
11473;SDS011;5793;52.238;13.438;2023-06-22T14:24:38;5.00;;;4.50;;
11473;SDS011;5793;52.238;13.438;2023-06-22T14:27:05;4.45;;;4.03;;
11473;SDS011;5793;52.238;13.438;2023-06-22T14:29:34;11.93;;;4.72;;
11473;SDS011;5793;52.238;13.438;2023-06-22T14:32:02;4.90;;;4.50;;
11473;SDS011;5793;52.238;13.438;2023-06-22T14:34:34;4.90;;;4.50;;
11473;SDS011;5793;52.238;13.438;2023-06-22T14:37:05;6.18;;;4.80;;
11473;SDS011;5793;52.238;13.438;2023-06-22T14:39:33;7.30;;;4.47;;
11473;SDS011;5793;52.238;13.438;2023-06-22T14:42:01;4.80;;;4.40;;
11473;SDS011;5793;52.238;13.438;2023-06-22T14:44:29;5.47;;;4.97;;
11473;SDS011;5793;52.238;13.438;2023-06-22T14:46:57;5.25;;;4.85;;